Albia, Iowa
Current Conditions -  °F | °C
As of 8:53 AM on Saturday 25 Oct 2014 (Local Time) from KOTM Reporting Station
Clear Clear  
Wind Chill: 54°   Ceiling: Unl
Heat Index: 54°   Visibility: 10mi
Dew Point: 48°   Wind: 6mph
Humidity: 80%   Direction: 330°NNW
Pressure: 30.05"   Gusts: NA
Location:  41.03°N, 92.81°W
Report Text: KOTM 251353Z AUTO 33005KT 10SM CLR 12/09 A3005 RMK AO2 SLP176 T01220089
Loading
Personal Weather Stations






























Interactive Weather Map
Tropical Storm Tracking
New forecast layout! Learn more

10-Day Weather Forecast

Advertisements
Track Severe Weather on mobile